sensor_id;sensor_type;location;lat;lon;timestamp;pressure;altitude;pressure_sealevel;temperature;humidity
70521;BME280;58442;52.716;23.560;2023-02-12T00:01:24;102478.77;;;1.89;75.03
70521;BME280;58442;52.716;23.560;2023-02-12T00:03:38;102472.30;;;1.85;74.91
70521;BME280;58442;52.716;23.560;2023-02-12T00:05:40;102479.75;;;1.83;74.96
70521;BME280;58442;52.716;23.560;2023-02-12T00:07:44;102476.27;;;1.83;74.94
70521;BME280;58442;52.716;23.560;2023-02-12T00:09:45;102485.92;;;1.84;74.85
70521;BME280;58442;52.716;23.560;2023-02-12T00:11:51;102491.28;;;1.84;74.70
70521;BME280;58442;52.716;23.560;2023-02-12T00:13:53;102483.50;;;1.82;74.64
70521;BME280;58442;52.716;23.560;2023-02-12T00:15:55;102502.82;;;1.84;74.81
70521;BME280;58442;52.716;23.560;2023-02-12T00:17:56;102515.66;;;1.82;74.26
70521;BME280;58442;52.716;23.560;2023-02-12T00:20:05;102521.02;;;1.82;74.28
70521;BME280;58442;52.716;23.560;2023-02-12T00:22:06;102523.96;;;1.81;74.13
70521;BME280;58442;52.716;23.560;2023-02-12T00:24:08;102518.84;;;1.79;73.90
70521;BME280;58442;52.716;23.560;2023-02-12T00:26:15;102514.21;;;1.75;73.85
70521;BME280;58442;52.716;23.560;2023-02-12T00:28:19;102516.34;;;1.73;73.92
70521;BME280;58442;52.716;23.560;2023-02-12T00:30:21;102514.71;;;1.72;73.71
70521;BME280;58442;52.716;23.560;2023-02-12T00:32:22;102518.42;;;1.71;73.65
70521;BME280;58442;52.716;23.560;2023-02-12T00:34:23;102514.93;;;1.70;73.55
70521;BME280;58442;52.716;23.560;2023-02-12T00:36:34;102508.20;;;1.68;73.26
70521;BME280;58442;52.716;23.560;2023-02-12T00:38:35;102522.66;;;1.67;73.28
70521;BME280;58442;52.716;23.560;2023-02-12T00:40:37;102519.73;;;1.68;73.29
70521;BME280;58442;52.716;23.560;2023-02-12T00:42:38;102541.98;;;1.69;73.21
70521;BME280;58442;52.716;23.560;2023-02-12T00:44:49;102538.23;;;1.70;73.10
70521;BME280;58442;52.716;23.560;2023-02-12T00:46:50;102539.04;;;1.70;72.96
70521;BME280;58442;52.716;23.560;2023-02-12T00:48:52;102546.29;;;1.70;72.90
70521;BME280;58442;52.716;23.560;2023-02-12T00:50:53;102550.59;;;1.71;72.86
70521;BME280;58442;52.716;23.560;2023-02-12T00:53:04;102552.23;;;1.72;72.94
70521;BME280;58442;52.716;23.560;2023-02-12T00:55:08;102550.37;;;1.72;72.86
70521;BME280;58442;52.716;23.560;2023-02-12T00:57:10;102567.25;;;1.73;72.80
70521;BME280;58442;52.716;23.560;2023-02-12T00:59:11;102574.23;;;1.74;72.76
70521;BME280;58442;52.716;23.560;2023-02-12T01:01:19;102569.13;;;1.72;72.74
70521;BME280;58442;52.716;23.560;2023-02-12T01:03:20;102582.27;;;1.74;72.68
70521;BME280;58442;52.716;23.560;2023-02-12T01:05:22;102581.71;;;1.72;72.54
70521;BME280;58442;52.716;23.560;2023-02-12T01:07:23;102582.74;;;1.71;72.61
70521;BME280;58442;52.716;23.560;2023-02-12T01:09:34;102585.67;;;1.69;72.50
70521;BME280;58442;52.716;23.560;2023-02-12T01:11:38;102586.17;;;1.66;72.51
70521;BME280;58442;52.716;23.560;2023-02-12T01:13:40;102599.78;;;1.64;72.57
70521;BME280;58442;52.716;23.560;2023-02-12T01:15:41;102605.73;;;1.67;72.54
70521;BME280;58442;52.716;23.560;2023-02-12T01:17:53;102608.16;;;1.68;72.46
70521;BME280;58442;52.716;23.560;2023-02-12T01:19:57;102616.70;;;1.65;72.26
70521;BME280;58442;52.716;23.560;2023-02-12T01:21:59;102617.98;;;1.62;72.39
70521;BME280;58442;52.716;23.560;2023-02-12T01:24:01;102619.60;;;1.63;72.35
70521;BME280;58442;52.716;23.560;2023-02-12T01:26:04;102615.05;;;1.64;72.34
70521;BME280;58442;52.716;23.560;2023-02-12T01:28:10;102628.45;;;1.64;72.13
70521;BME280;58442;52.716;23.560;2023-02-12T01:30:13;102631.95;;;1.64;72.09
70521;BME280;58442;52.716;23.560;2023-02-12T01:32:15;102640.48;;;1.61;72.07
70521;BME280;58442;52.716;23.560;2023-02-12T01:34:19;102646.33;;;1.58;72.12
70521;BME280;58442;52.716;23.560;2023-02-12T01:36:21;102645.73;;;1.56;71.93
70521;BME280;58442;52.716;23.560;2023-02-12T01:38:22;102653.21;;;1.54;71.96
70521;BME280;58442;52.716;23.560;2023-02-12T01:40:26;102650.77;;;1.53;71.96
70521;BME280;58442;52.716;23.560;2023-02-12T01:42:34;102654.52;;;1.52;71.87
70521;BME280;58442;52.716;23.560;2023-02-12T01:44:42;102656.38;;;1.51;71.59
70521;BME280;58442;52.716;23.560;2023-02-12T01:46:46;102661.13;;;1.49;71.64
70521;BME280;58442;52.716;23.560;2023-02-12T01:48:47;102673.73;;;1.49;71.60
70521;BME280;58442;52.716;23.560;2023-02-12T01:50:53;102673.16;;;1.47;71.50
70521;BME280;58442;52.716;23.560;2023-02-12T01:52:56;102690.28;;;1.46;71.46
70521;BME280;58442;52.716;23.560;2023-02-12T01:55:02;102685.17;;;1.44;71.42
70521;BME280;58442;52.716;23.560;2023-02-12T01:57:07;102686.20;;;1.43;71.38
70521;BME280;58442;52.716;23.560;2023-02-12T01:59:10;102686.44;;;1.42;71.37
70521;BME280;58442;52.716;23.560;2023-02-12T02:01:17;102679.71;;;1.39;71.27
70521;BME280;58442;52.716;23.560;2023-02-12T02:03:20;102679.10;;;1.37;71.20
70521;BME280;58442;52.716;23.560;2023-02-12T02:07:34;102677.16;;;1.32;71.23
70521;BME280;58442;52.716;23.560;2023-02-12T02:09:45;102684.63;;;1.30;71.06
70521;BME280;58442;52.716;23.560;2023-02-12T02:11:47;102681.60;;;1.27;71.10
70521;BME280;58442;52.716;23.560;2023-02-12T02:14:00;102690.93;;;1.24;70.98
70521;BME280;58442;52.716;23.560;2023-02-12T02:16:20;102679.28;;;1.19;71.08
70521;BME280;58442;52.716;23.560;2023-02-12T02:18:51;102679.54;;;1.17;71.19
70521;BME280;58442;52.716;23.560;2023-02-12T02:23:07;102693.13;;;1.16;71.08
70521;BME280;58442;52.716;23.560;2023-02-12T02:32:26;102709.92;;;1.11;70.84
70521;BME280;58442;52.716;23.560;2023-02-12T02:37:11;102709.24;;;1.04;70.93
70521;BME280;58442;52.716;23.560;2023-02-12T02:44:04;102715.61;;;1.03;70.87
70521;BME280;58442;52.716;23.560;2023-02-12T02:46:21;102716.92;;;1.00;70.69
70521;BME280;58442;52.716;23.560;2023-02-12T02:48:40;102723.55;;;0.98;70.87
70521;BME280;58442;52.716;23.560;2023-02-12T02:50:41;102734.27;;;0.98;70.87
70521;BME280;58442;52.716;23.560;2023-02-12T02:52:58;102728.91;;;0.98;70.88
70521;BME280;58442;52.716;23.560;2023-02-12T02:55:03;102743.68;;;1.00;70.85
70521;BME280;58442;52.716;23.560;2023-02-12T02:57:23;102747.98;;;1.01;70.79
70521;BME280;58442;52.716;23.560;2023-02-12T02:59:39;102747.41;;;0.99;70.75
70521;BME280;58442;52.716;23.560;2023-02-12T03:01:51;102747.89;;;0.96;70.83
70521;BME280;58442;52.716;23.560;2023-02-12T03:04:04;102759.40;;;0.97;70.86
70521;BME280;58442;52.716;23.560;2023-02-12T03:06:11;102763.95;;;0.96;70.89
70521;BME280;58442;52.716;23.560;2023-02-12T03:08:24;102756.73;;;0.97;70.83
70521;BME280;58442;52.716;23.560;2023-02-12T03:10:30;102773.01;;;0.95;70.81
70521;BME280;58442;52.716;23.560;2023-02-12T03:12:46;102770.33;;;0.95;70.82
70521;BME280;58442;52.716;23.560;2023-02-12T03:14:54;102787.91;;;0.91;70.89
70521;BME280;58442;52.716;23.560;2023-02-12T03:17:03;102783.01;;;0.88;70.93
70521;BME280;58442;52.716;23.560;2023-02-12T03:19:16;102789.89;;;0.84;71.08
70521;BME280;58442;52.716;23.560;2023-02-12T03:21:24;102797.55;;;0.80;71.20
70521;BME280;58442;52.716;23.560;2023-02-12T03:23:54;102798.83;;;0.78;71.31
70521;BME280;58442;52.716;23.560;2023-02-12T03:25:52;102800.94;;;0.76;71.37
70521;BME280;58442;52.716;23.560;2023-02-12T03:28:21;102810.79;;;0.75;71.56
70521;BME280;58442;52.716;23.560;2023-02-12T03:30:37;102812.66;;;0.75;71.46
70521;BME280;58442;52.716;23.560;2023-02-12T03:32:58;102819.66;;;0.76;71.42
70521;BME280;58442;52.716;23.560;2023-02-12T03:35:20;102823.16;;;0.76;71.41
70521;BME280;58442;52.716;23.560;2023-02-12T03:37:34;102834.68;;;0.77;71.36
70521;BME280;58442;52.716;23.560;2023-02-12T03:46:33;102866.88;;;0.70;71.35
70521;BME280;58442;52.716;23.560;2023-02-12T03:48:30;102868.62;;;0.65;71.48
70521;BME280;58442;52.716;23.560;2023-02-12T03:50:45;102879.75;;;0.62;71.58
70521;BME280;58442;52.716;23.560;2023-02-12T03:52:57;102895.45;;;0.58;71.66
70521;BME280;58442;52.716;23.560;2023-02-12T03:54:59;102895.08;;;0.54;71.71
70521;BME280;58442;52.716;23.560;2023-02-12T03:57:06;102882.40;;;0.50;71.82
70521;BME280;58442;52.716;23.560;2023-02-12T03:59:09;102890.66;;;0.48;71.91
70521;BME280;58442;52.716;23.560;2023-02-12T04:01:13;102892.73;;;0.46;71.92
70521;BME280;58442;52.716;23.560;2023-02-12T04:03:14;102903.88;;;0.43;71.99
70521;BME280;58442;52.716;23.560;2023-02-12T04:05:21;102900.63;;;0.41;72.05
70521;BME280;58442;52.716;23.560;2023-02-12T04:07:23;102898.16;;;0.40;72.11
70521;BME280;58442;52.716;23.560;2023-02-12T04:09:28;102917.93;;;0.39;72.08
70521;BME280;58442;52.716;23.560;2023-02-12T04:16:16;102915.41;;;0.25;72.37
70521;BME280;58442;52.716;23.560;2023-02-12T04:18:19;102921.57;;;0.26;72.40
70521;BME280;58442;52.716;23.560;2023-02-12T04:27:24;102957.55;;;0.30;72.20
70521;BME280;58442;52.716;23.560;2023-02-12T04:31:55;102958.81;;;0.28;72.24
70521;BME280;58442;52.716;23.560;2023-02-12T04:34:06;102968.66;;;0.27;72.23
70521;BME280;58442;52.716;23.560;2023-02-12T04:36:20;102965.41;;;0.25;72.31
70521;BME280;58442;52.716;23.560;2023-02-12T04:38:31;102963.32;;;0.27;72.26
70521;BME280;58442;52.716;23.560;2023-02-12T04:40:37;102970.33;;;0.28;72.19
70521;BME280;58442;52.716;23.560;2023-02-12T04:42:44;102973.59;;;0.30;72.13
70521;BME280;58442;52.716;23.560;2023-02-12T04:44:45;102978.77;;;0.25;72.17
70521;BME280;58442;52.716;23.560;2023-02-12T04:46:47;102979.00;;;0.23;72.19
70521;BME280;58442;52.716;23.560;2023-02-12T04:48:56;102971.20;;;0.22;72.28
70521;BME280;58442;52.716;23.560;2023-02-12T04:50:57;102978.84;;;0.18;72.28
70521;BME280;58442;52.716;23.560;2023-02-12T04:52:59;102977.87;;;0.13;72.36
70521;BME280;58442;52.716;23.560;2023-02-12T04:55:00;102985.77;;;0.08;72.53
70521;BME280;58442;52.716;23.560;2023-02-12T04:57:05;102977.95;;;0.06;72.64
70521;BME280;58442;52.716;23.560;2023-02-12T04:59:06;102987.82;;;0.06;72.66
70521;BME280;58442;52.716;23.560;2023-02-12T05:01:08;103000.13;;;0.07;72.66
70521;BME280;58442;52.716;23.560;2023-02-12T05:03:10;102999.31;;;0.06;72.62
70521;BME280;58442;52.716;23.560;2023-02-12T05:05:20;103003.27;;;0.04;72.60
70521;BME280;58442;52.716;23.560;2023-02-12T05:07:22;103001.05;;;0.01;72.66
70521;BME280;58442;52.716;23.560;2023-02-12T05:09:29;103005.58;;;0.00;72.82
70521;BME280;58442;52.716;23.560;2023-02-12T05:11:30;103008.45;;;-0.02;72.68
70521;BME280;58442;52.716;23.560;2023-02-12T05:13:35;103012.16;;;-0.03;72.71
70521;BME280;58442;52.716;23.560;2023-02-12T05:15:41;103014.02;;;-0.03;72.70
70521;BME280;58442;52.716;23.560;2023-02-12T05:17:42;103029.47;;;-0.05;72.73
70521;BME280;58442;52.716;23.560;2023-02-12T05:19:47;103025.16;;;-0.06;72.76
70521;BME280;58442;52.716;23.560;2023-02-12T05:21:50;103031.52;;;-0.07;72.75
70521;BME280;58442;52.716;23.560;2023-02-12T05:23:51;103031.98;;;-0.10;72.74
70521;BME280;58442;52.716;23.560;2023-02-12T05:25:53;103036.50;;;-0.11;72.86
70521;BME280;58442;52.716;23.560;2023-02-12T05:27:54;103045.55;;;-0.12;72.83
70521;BME280;58442;52.716;23.560;2023-02-12T05:30:06;103045.16;;;-0.15;72.87
70521;BME280;58442;52.716;23.560;2023-02-12T05:32:09;103055.26;;;-0.17;72.90
70521;BME280;58442;52.716;23.560;2023-02-12T05:34:13;103055.49;;;-0.19;73.02
70521;BME280;58442;52.716;23.560;2023-02-12T05:36:17;103067.41;;;-0.21;73.08
70521;BME280;58442;52.716;23.560;2023-02-12T05:38:20;103057.55;;;-0.21;73.07
70521;BME280;58442;52.716;23.560;2023-02-12T05:40:22;103067.04;;;-0.25;73.03
70521;BME280;58442;52.716;23.560;2023-02-12T05:42:23;103077.72;;;-0.25;73.17
70521;BME280;58442;52.716;23.560;2023-02-12T05:44:25;103072.61;;;-0.26;73.22
70521;BME280;58442;52.716;23.560;2023-02-12T05:46:35;103078.77;;;-0.26;73.22
70521;BME280;58442;52.716;23.560;2023-02-12T05:48:37;103082.03;;;-0.24;73.23
70521;BME280;58442;52.716;23.560;2023-02-12T05:50:39;103085.52;;;-0.23;73.15
70521;BME280;58442;52.716;23.560;2023-02-12T05:52:40;103082.03;;;-0.24;73.14
70521;BME280;58442;52.716;23.560;2023-02-12T05:54:50;103085.52;;;-0.23;73.15
70521;BME280;58442;52.716;23.560;2023-02-12T05:56:51;103083.66;;;-0.23;73.13
70521;BME280;58442;52.716;23.560;2023-02-12T05:58:58;103091.67;;;-0.23;73.05
70521;BME280;58442;52.716;23.560;2023-02-12T06:01:02;103100.33;;;-0.28;73.14
70521;BME280;58442;52.716;23.560;2023-02-12T06:03:05;103099.96;;;-0.31;73.32
70521;BME280;58442;52.716;23.560;2023-02-12T06:05:07;103094.03;;;-0.33;73.40
70521;BME280;58442;52.716;23.560;2023-02-12T06:07:10;103096.70;;;-0.33;73.45
70521;BME280;58442;52.716;23.560;2023-02-12T06:09:12;103090.32;;;-0.32;73.41
70521;BME280;58442;52.716;23.560;2023-02-12T06:11:20;103095.05;;;-0.34;73.43
70521;BME280;58442;52.716;23.560;2023-02-12T06:13:24;103091.77;;;-0.36;73.50
70521;BME280;58442;52.716;23.560;2023-02-12T06:15:25;103094.45;;;-0.36;73.57
70521;BME280;58442;52.716;23.560;2023-02-12T06:17:27;103105.75;;;-0.34;73.57
70521;BME280;58442;52.716;23.560;2023-02-12T06:19:35;103112.73;;;-0.33;73.52
70521;BME280;58442;52.716;23.560;2023-02-12T06:21:40;103107.97;;;-0.31;73.44
70521;BME280;58442;52.716;23.560;2023-02-12T06:23:44;103103.67;;;-0.32;73.45
70521;BME280;58442;52.716;23.560;2023-02-12T06:25:46;103104.49;;;-0.32;73.45
70521;BME280;58442;52.716;23.560;2023-02-12T06:27:50;103113.32;;;-0.31;73.43
70521;BME280;58442;52.716;23.560;2023-02-12T06:29:51;103115.99;;;-0.31;73.43
70521;BME280;58442;52.716;23.560;2023-02-12T06:31:53;103127.72;;;-0.32;73.46
70521;BME280;58442;52.716;23.560;2023-02-12T06:33:56;103132.84;;;-0.31;73.48
70521;BME280;58442;52.716;23.560;2023-02-12T06:36:05;103134.47;;;-0.30;73.45
70521;BME280;58442;52.716;23.560;2023-02-12T06:38:07;103143.30;;;-0.29;73.47
70521;BME280;58442;52.716;23.560;2023-02-12T06:40:12;103142.71;;;-0.31;73.48
70521;BME280;58442;52.716;23.560;2023-02-12T06:42:14;103148.05;;;-0.31;73.53
70521;BME280;58442;52.716;23.560;2023-02-12T06:44:20;103153.41;;;-0.31;73.56
70521;BME280;58442;52.716;23.560;2023-02-12T06:46:22;103158.74;;;-0.31;73.58
70521;BME280;58442;52.716;23.560;2023-02-12T06:48:23;103165.95;;;-0.32;73.64
70521;BME280;58442;52.716;23.560;2023-02-12T06:50:25;103164.89;;;-0.31;73.63
70521;BME280;58442;52.716;23.560;2023-02-12T06:52:35;103168.38;;;-0.30;73.66
70521;BME280;58442;52.716;23.560;2023-02-12T06:54:37;103172.09;;;-0.31;73.68
70521;BME280;58442;52.716;23.560;2023-02-12T06:56:38;103168.62;;;-0.32;73.70
70521;BME280;58442;52.716;23.560;2023-02-12T06:58:41;103168.84;;;-0.33;73.75
70521;BME280;58442;52.716;23.560;2023-02-12T07:00:50;103166.98;;;-0.33;73.83
70521;BME280;58442;52.716;23.560;2023-02-12T07:02:55;103167.80;;;-0.32;73.81
70521;BME280;58442;52.716;23.560;2023-02-12T07:04:56;103168.62;;;-0.32;73.87
70521;BME280;58442;52.716;23.560;2023-02-12T07:06:58;103169.20;;;-0.30;73.84
70521;BME280;58442;52.716;23.560;2023-02-12T07:09:05;103172.70;;;-0.29;73.81
70521;BME280;58442;52.716;23.560;2023-02-12T07:11:07;103176.82;;;-0.26;73.77
70521;BME280;58442;52.716;23.560;2023-02-12T07:13:08;103177.63;;;-0.26;73.76
70521;BME280;58442;52.716;23.560;2023-02-12T07:15:10;103179.26;;;-0.25;73.76
70521;BME280;58442;52.716;23.560;2023-02-12T07:17:20;103188.32;;;-0.26;73.80
70521;BME280;58442;52.716;23.560;2023-02-12T07:19:22;103187.50;;;-0.26;73.89
70521;BME280;58442;52.716;23.560;2023-02-12T07:21:24;103179.49;;;-0.26;73.93
70521;BME280;58442;52.716;23.560;2023-02-12T07:23:25;103181.94;;;-0.25;73.93
70521;BME280;58442;52.716;23.560;2023-02-12T07:25:35;103178.82;;;-0.22;73.95
70521;BME280;58442;52.716;23.560;2023-02-12T07:27:37;103190.95;;;-0.19;73.88
70521;BME280;58442;52.716;23.560;2023-02-12T07:29:39;103180.04;;;-0.18;73.78
70521;BME280;58442;52.716;23.560;2023-02-12T07:31:40;103178.78;;;-0.15;73.74
70521;BME280;58442;52.716;23.560;2023-02-12T07:33:55;103174.26;;;-0.15;73.73
70521;BME280;58442;52.716;23.560;2023-02-12T07:36:01;103173.44;;;-0.15;73.79
70521;BME280;58442;52.716;23.560;2023-02-12T07:38:02;103177.75;;;-0.14;73.80
70521;BME280;58442;52.716;23.560;2023-02-12T07:40:04;103176.93;;;-0.15;73.83
70521;BME280;58442;52.716;23.560;2023-02-12T07:42:06;103176.74;;;-0.13;73.88
70521;BME280;58442;52.716;23.560;2023-02-12T07:44:10;103180.60;;;-0.09;73.87
70521;BME280;58442;52.716;23.560;2023-02-12T07:46:15;103186.35;;;-0.06;73.80
70521;BME280;58442;52.716;23.560;2023-02-12T07:48:17;103182.63;;;-0.05;73.75
70521;BME280;58442;52.716;23.560;2023-02-12T07:50:21;103179.73;;;-0.03;73.74
70521;BME280;58442;52.716;23.560;2023-02-12T07:52:22;103184.05;;;-0.02;73.75
70521;BME280;58442;52.716;23.560;2023-02-12T07:54:24;103181.16;;;-0.01;73.76
70521;BME280;58442;52.716;23.560;2023-02-12T07:56:31;103183.63;;;0.01;73.77
70521;BME280;58442;52.716;23.560;2023-02-12T07:58:37;103183.41;;;0.03;73.76
70521;BME280;58442;52.716;23.560;2023-02-12T08:00:42;103198.20;;;0.05;73.78
70521;BME280;58442;52.716;23.560;2023-02-12T08:02:43;103205.80;;;0.08;73.71
70521;BME280;58442;52.716;23.560;2023-02-12T08:04:44;103205.80;;;0.08;73.74
70521;BME280;58442;52.716;23.560;2023-02-12T08:06:53;103206.98;;;0.12;73.79
70521;BME280;58442;52.716;23.560;2023-02-12T08:08:57;103212.73;;;0.16;73.75
70521;BME280;58442;52.716;23.560;2023-02-12T08:10:59;103215.19;;;0.17;73.73
70521;BME280;58442;52.716;23.560;2023-02-12T08:13:00;103211.24;;;0.20;73.71
70521;BME280;58442;52.716;23.560;2023-02-12T08:15:07;103211.24;;;0.20;73.69
70521;BME280;58442;52.716;23.560;2023-02-12T08:17:08;103214.55;;;0.22;73.77
70521;BME280;58442;52.716;23.560;2023-02-12T08:19:10;103220.48;;;0.24;73.69
70521;BME280;58442;52.716;23.560;2023-02-12T08:21:18;103217.82;;;0.24;73.67
70521;BME280;58442;52.716;23.560;2023-02-12T08:23:21;103208.53;;;0.26;73.68
70521;BME280;58442;52.716;23.560;2023-02-12T08:25:23;103216.95;;;0.30;73.64
70521;BME280;58442;52.716;23.560;2023-02-12T08:27:24;103212.20;;;0.32;73.64
70521;BME280;58442;52.716;23.560;2023-02-12T08:29:28;103212.20;;;0.32;73.61
70521;BME280;58442;52.716;23.560;2023-02-12T08:31:39;103213.83;;;0.33;73.64
70521;BME280;58442;52.716;23.560;2023-02-12T08:33:41;103224.93;;;0.37;73.61
70521;BME280;58442;52.716;23.560;2023-02-12T08:35:44;103219.13;;;0.40;73.56
70521;BME280;58442;52.716;23.560;2023-02-12T08:37:45;103219.95;;;0.40;73.55
70521;BME280;58442;52.716;23.560;2023-02-12T08:39:51;103219.53;;;0.43;73.50
70521;BME280;58442;52.716;23.560;2023-02-12T08:41:54;103230.60;;;0.47;73.47
70521;BME280;58442;52.716;23.560;2023-02-12T08:43:58;103232.05;;;0.49;73.27
70521;BME280;58442;52.716;23.560;2023-02-12T08:46:11;103236.94;;;0.52;73.44
70521;BME280;58442;52.716;23.560;2023-02-12T08:48:12;103249.23;;;0.60;73.37
70521;BME280;58442;52.716;23.560;2023-02-12T08:50:14;103247.77;;;0.64;73.34
70521;BME280;58442;52.716;23.560;2023-02-12T08:52:15;103242.79;;;0.68;73.25
70521;BME280;58442;52.716;23.560;2023-02-12T08:54:21;103248.76;;;0.70;73.20
70521;BME280;58442;52.716;23.560;2023-02-12T08:56:24;103247.70;;;0.71;73.14
70521;BME280;58442;52.716;23.560;2023-02-12T08:58:26;103244.21;;;0.70;73.18
70521;BME280;58442;52.716;23.560;2023-02-12T09:00:27;103253.88;;;0.71;73.21
70521;BME280;58442;52.716;23.560;2023-02-12T09:02:28;103256.92;;;0.75;73.20
70521;BME280;58442;52.716;23.560;2023-02-12T09:04:37;103250.93;;;0.79;73.18
70521;BME280;58442;52.716;23.560;2023-02-12T09:06:41;103258.73;;;0.81;73.15
70521;BME280;58442;52.716;23.560;2023-02-12T09:08:42;103268.79;;;0.86;73.11
70521;BME280;58442;52.716;23.560;2023-02-12T09:10:44;103269.77;;;0.91;73.07
70521;BME280;58442;52.716;23.560;2023-02-12T09:12:52;103266.81;;;0.99;73.01
70521;BME280;58442;52.716;23.560;2023-02-12T09:14:56;103262.44;;;1.05;72.91
70521;BME280;58442;52.716;23.560;2023-02-12T09:16:57;103269.59;;;1.11;72.80
70521;BME280;58442;52.716;23.560;2023-02-12T09:18:58;103266.86;;;1.18;72.76
70521;BME280;58442;52.716;23.560;2023-02-12T09:21:09;103268.19;;;1.27;72.64
70521;BME280;58442;52.716;23.560;2023-02-12T09:23:13;103269.16;;;1.32;72.54
70521;BME280;58442;52.716;23.560;2023-02-12T09:32:23;103264.63;;;1.51;72.17
70521;BME280;58442;52.716;23.560;2023-02-12T09:34:27;103273.85;;;1.55;72.11
70521;BME280;58442;52.716;23.560;2023-02-12T09:36:34;103275.63;;;1.61;72.11
70521;BME280;58442;52.716;23.560;2023-02-12T09:53:16;103284.33;;;1.94;71.43
70521;BME280;58442;52.716;23.560;2023-02-12T09:55:38;103295.79;;;2.01;71.42
70521;BME280;58442;52.716;23.560;2023-02-12T10:28:39;103276.76;;;2.32;70.28
70521;BME280;58442;52.716;23.560;2023-02-12T10:31:11;103273.02;;;2.33;70.21
70521;BME280;58442;52.716;23.560;2023-02-12T10:35:34;103275.50;;;2.35;69.99
70521;BME280;58442;52.716;23.560;2023-02-12T10:40:16;103263.24;;;2.39;69.90
70521;BME280;58442;52.716;23.560;2023-02-12T10:42:47;103264.43;;;2.43;69.78
70521;BME280;58442;52.716;23.560;2023-02-12T10:44:43;103264.20;;;2.44;69.69
70521;BME280;58442;52.716;23.560;2023-02-12T10:49:17;103268.66;;;2.51;69.49
70521;BME280;58442;52.716;23.560;2023-02-12T10:53:50;103262.80;;;2.54;69.28
70521;BME280;58442;52.716;23.560;2023-02-12T11:00:33;103274.48;;;2.59;69.05
70521;BME280;58442;52.716;23.560;2023-02-12T11:15:02;103260.40;;;2.76;68.62
70521;BME280;58442;52.716;23.560;2023-02-12T11:19:37;103262.61;;;2.79;68.51
70521;BME280;58442;52.716;23.560;2023-02-12T11:21:40;103252.45;;;2.81;68.46
70521;BME280;58442;52.716;23.560;2023-02-12T11:23:55;103256.55;;;2.83;68.44
70521;BME280;58442;52.716;23.560;2023-02-12T11:28:19;103254.00;;;2.88;68.35
70521;BME280;58442;52.716;23.560;2023-02-12T11:30:26;103259.70;;;2.92;68.16
70521;BME280;58442;52.716;23.560;2023-02-12T11:32:34;103261.34;;;2.93;68.21
70521;BME280;58442;52.716;23.560;2023-02-12T11:39:38;103252.59;;;2.97;67.85
70521;BME280;58442;52.716;23.560;2023-02-12T11:41:52;103248.84;;;2.98;67.89
70521;BME280;58442;52.716;23.560;2023-02-12T11:44:16;103257.27;;;3.02;67.79
70521;BME280;58442;52.716;23.560;2023-02-12T11:46:29;103256.79;;;3.05;67.66
70521;BME280;58442;52.716;23.560;2023-02-12T11:48:40;103250.35;;;3.06;67.52
70521;BME280;58442;52.716;23.560;2023-02-12T11:51:05;103251.74;;;3.09;67.43
70521;BME280;58442;52.716;23.560;2023-02-12T11:53:22;103253.41;;;3.10;67.35
70521;BME280;58442;52.716;23.560;2023-02-12T12:00:21;103245.44;;;3.15;67.13
70521;BME280;58442;52.716;23.560;2023-02-12T12:04:54;103234.00;;;3.19;66.94
70521;BME280;58442;52.716;23.560;2023-02-12T12:16:43;103230.81;;;3.34;66.34
70521;BME280;58442;52.716;23.560;2023-02-12T12:19:19;103235.95;;;3.36;66.24
70521;BME280;58442;52.716;23.560;2023-02-12T12:26:26;103215.50;;;3.35;65.93
70521;BME280;58442;52.716;23.560;2023-02-12T12:38:01;103226.93;;;3.42;65.36
70521;BME280;58442;52.716;23.560;2023-02-12T12:50:02;103210.90;;;3.59;64.72
70521;BME280;58442;52.716;23.560;2023-02-12T13:20:17;103198.45;;;3.69;63.81
70521;BME280;58442;52.716;23.560;2023-02-12T13:24:49;103196.11;;;3.73;63.63
70521;BME280;58442;52.716;23.560;2023-02-12T13:27:07;103196.92;;;3.73;63.59
70521;BME280;58442;52.716;23.560;2023-02-12T13:29:19;103193.16;;;3.74;63.45
70521;BME280;58442;52.716;23.560;2023-02-12T13:31:26;103192.34;;;3.74;63.39
70521;BME280;58442;52.716;23.560;2023-02-12T13:35:45;103200.67;;;3.72;63.19
70521;BME280;58442;52.716;23.560;2023-02-12T13:37:52;103206.86;;;3.73;63.15
70521;BME280;58442;52.716;23.560;2023-02-12T13:39:57;103208.24;;;3.75;63.00
70521;BME280;58442;52.716;23.560;2023-02-12T13:44:21;103200.74;;;3.77;62.91
70521;BME280;58442;52.716;23.560;2023-02-12T13:53:19;103185.59;;;3.71;62.69
70521;BME280;58442;52.716;23.560;2023-02-12T13:55:44;103189.56;;;3.69;62.80
70521;BME280;58442;52.716;23.560;2023-02-12T14:02:42;103184.92;;;3.64;62.87
70521;BME280;58442;52.716;23.560;2023-02-12T14:04:56;103179.55;;;3.64;62.80
70521;BME280;58442;52.716;23.560;2023-02-12T14:07:07;103177.88;;;3.63;62.71
70521;BME280;58442;52.716;23.560;2023-02-12T14:09:10;103169.49;;;3.60;62.70
70521;BME280;58442;52.716;23.560;2023-02-12T14:11:19;103168.58;;;3.54;62.67
70521;BME280;58442;52.716;23.560;2023-02-12T14:13:26;103165.78;;;3.49;62.72
70521;BME280;58442;52.716;23.560;2023-02-12T14:15:40;103167.34;;;3.45;62.62
70521;BME280;58442;52.716;23.560;2023-02-12T14:17:52;103184.74;;;3.42;62.61
70521;BME280;58442;52.716;23.560;2023-02-12T14:19:56;103189.80;;;3.39;62.53
70521;BME280;58442;52.716;23.560;2023-02-12T14:26:36;103204.55;;;3.24;62.49
70521;BME280;58442;52.716;23.560;2023-02-12T14:37:34;103228.66;;;2.96;62.53
70521;BME280;58442;52.716;23.560;2023-02-12T14:39:38;103232.85;;;2.92;62.58
70521;BME280;58442;52.716;23.560;2023-02-12T14:41:39;103228.17;;;2.87;62.48
70521;BME280;58442;52.716;23.560;2023-02-12T14:43:43;103225.15;;;2.84;62.52
70521;BME280;58442;52.716;23.560;2023-02-12T14:50:28;103227.82;;;2.72;62.72
70521;BME280;58442;52.716;23.560;2023-02-12T14:52:38;103228.75;;;2.66;62.71